createdAt,value
2018-03-06T00:00:59.201Z,-5.35
2018-03-06T00:02:09.133Z,-5.3
2018-03-06T00:03:19.191Z,-5.41
2018-03-06T00:04:31.014Z,-5.38
2018-03-06T00:05:42.351Z,-5.37
2018-03-06T00:06:54.988Z,-5.35
2018-03-06T00:08:07.587Z,-5.3
2018-03-06T00:09:18.329Z,-5.45
2018-03-06T00:10:28.115Z,-5.38
2018-03-06T00:11:37.905Z,-5.38
2018-03-06T00:12:47.423Z,-5.34
2018-03-06T00:13:59.082Z,-5.39
2018-03-06T00:15:09.756Z,-5.39
2018-03-06T00:16:21.251Z,-5.38
2018-03-06T00:17:33.297Z,-5.32
2018-03-06T00:18:43.370Z,-5.35
2018-03-06T00:19:53.804Z,-5.31
2018-03-06T00:21:03.058Z,-5.34
2018-03-06T00:22:13.250Z,-5.2
2018-03-06T00:23:23.124Z,-5.31
2018-03-06T00:24:35.532Z,-5.19
2018-03-06T00:25:45.904Z,-5.28
2018-03-06T00:26:56.038Z,-5.21
2018-03-06T00:28:05.843Z,-5.23
2018-03-06T00:29:15.640Z,-5.28
2018-03-06T00:30:26.817Z,-5.3
2018-03-06T00:31:39.394Z,-5.27
2018-03-06T00:32:51.757Z,-5.31
2018-03-06T00:34:02.758Z,-5.37
2018-03-06T00:35:12.300Z,-5.49
2018-03-06T00:36:22.117Z,-5.6
2018-03-06T00:37:31.646Z,-5.71
2018-03-06T00:38:41.717Z,-5.82
2018-03-06T00:39:53.149Z,-5.84
2018-03-06T00:41:06.963Z,-5.89
2018-03-06T00:42:18.404Z,-6.02
2018-03-06T00:43:28.504Z,-6.07
2018-03-06T00:44:38.004Z,-6.1
2018-03-06T00:45:49.453Z,-6.23
2018-03-06T00:47:01.300Z,-6.21
2018-03-06T00:48:13.785Z,-6.23
2018-03-06T00:49:23.877Z,-6.31
2018-03-06T00:50:33.673Z,-6.34
2018-03-06T00:51:43.737Z,-6.36
2018-03-06T00:52:55.355Z,-6.49
2018-03-06T00:54:08.025Z,-6.51
2018-03-06T00:55:19.693Z,-6.51
2018-03-06T00:56:29.928Z,-6.58
2018-03-06T00:57:39.989Z,-6.51
2018-03-06T00:58:49.781Z,-6.51
2018-03-06T01:00:01.552Z,-6.58
2018-03-06T01:01:13.268Z,-6.52
2018-03-06T01:02:26.012Z,-6.56
2018-03-06T01:03:37.629Z,-6.66
2018-03-06T01:04:47.423Z,-6.7
2018-03-06T01:05:57.224Z,-6.63
2018-03-06T01:07:07.305Z,-6.68
2018-03-06T01:08:19.096Z,-6.66
2018-03-06T01:09:30.397Z,-6.7
2018-03-06T01:10:42.857Z,-6.75
2018-03-06T01:11:54.088Z,-6.71
2018-03-06T01:13:03.868Z,-6.73
2018-03-06T01:14:13.664Z,-6.75
2018-03-06T01:15:23.739Z,-6.73
2018-03-06T01:16:35.178Z,-6.64
2018-03-06T01:17:47.204Z,-6.73
2018-03-06T01:18:59.290Z,-6.75
2018-03-06T01:20:11.054Z,-6.7
2018-03-06T01:21:21.134Z,-6.78
2018-03-06T01:22:31.214Z,-6.75
2018-03-06T01:23:41.313Z,-6.78
2018-03-06T01:24:51.833Z,-6.76
2018-03-06T01:26:02.496Z,-6.66
2018-03-06T01:27:14.751Z,-6.7
2018-03-06T01:28:25.694Z,-6.73
2018-03-06T01:29:35.531Z,-6.71
2018-03-06T01:30:45.333Z,-6.73
2018-03-06T01:31:56.763Z,-6.79
2018-03-06T01:33:09.369Z,-6.73
2018-03-06T01:34:21.863Z,-6.71
2018-03-06T01:35:31.372Z,-6.85
2018-03-06T01:36:41.183Z,-6.76
2018-03-06T01:37:51.644Z,-6.75
2018-03-06T01:39:02.220Z,-6.78
2018-03-06T01:40:13.822Z,-6.78
2018-03-06T01:41:24.828Z,-6.73
2018-03-06T01:42:34.324Z,-6.79
2018-03-06T01:43:44.417Z,-6.81
2018-03-06T01:44:56.120Z,-6.82
2018-03-06T01:46:09.116Z,-6.73
2018-03-06T01:47:20.445Z,-6.75
2018-03-06T01:48:30.532Z,-6.67
2018-03-06T01:49:40.217Z,-6.67
2018-03-06T01:50:50.000Z,-6.71
2018-03-06T01:52:01.561Z,-6.54
2018-03-06T01:53:14.291Z,-6.61
2018-03-06T01:54:26.341Z,-6.58
2018-03-06T01:55:36.133Z,-6.48
2018-03-06T01:56:46.203Z,-6.58
2018-03-06T01:57:55.995Z,-6.38
2018-03-06T01:59:05.237Z,-6.36
2018-03-06T02:00:18.653Z,-6.39
2018-03-06T02:01:31.187Z,-6.34
2018-03-06T02:02:41.274Z,-6.38
2018-03-06T02:03:51.390Z,-6.41
2018-03-06T02:05:01.189Z,-6.42
2018-03-06T02:06:12.857Z,-6.48
2018-03-06T02:07:25.274Z,-6.48
2018-03-06T02:08:36.611Z,-6.45
2018-03-06T02:09:48.454Z,-6.39
2018-03-06T02:10:58.541Z,-6.28
2018-03-06T02:12:08.056Z,-6.21
2018-03-06T02:13:18.178Z,-6.33
2018-03-06T02:14:29.352Z,-6.21
2018-03-06T02:15:42.087Z,-6.26
2018-03-06T02:16:53.573Z,-6.23
2018-03-06T02:18:04.634Z,-6.23
2018-03-06T02:19:14.163Z,-6.23
2018-03-06T02:20:24.255Z,-6.31
2018-03-06T02:21:34.382Z,-6.23
2018-03-06T02:22:44.473Z,-6.23
2018-03-06T02:23:54.888Z,-6.24
2018-03-06T02:25:07.210Z,-6.2
2018-03-06T02:26:20.073Z,-6.31
2018-03-06T02:27:29.903Z,-6.23
2018-03-06T02:28:40.021Z,-6.27
2018-03-06T02:29:49.827Z,-6.09
2018-03-06T02:31:01.711Z,-6.09
2018-03-06T02:32:14.227Z,-6.1
2018-03-06T02:33:26.449Z,-6.26
2018-03-06T02:34:37.387Z,-6.36
2018-03-06T02:35:47.473Z,-6.31
2018-03-06T02:36:57.564Z,-6.34
2018-03-06T02:38:07.366Z,-6.38
2018-03-06T02:39:17.458Z,-6.45
2018-03-06T02:40:29.039Z,-6.54
2018-03-06T02:41:39.257Z,-6.58
2018-03-06T02:42:50.921Z,-6.56
2018-03-06T02:44:00.992Z,-6.58
2018-03-06T02:45:10.801Z,-6.73
2018-03-06T02:46:20.810Z,-6.75
2018-03-06T02:47:32.258Z,-6.71
2018-03-06T02:48:44.686Z,-6.78
2018-03-06T02:49:57.207Z,-6.79
2018-03-06T02:51:06.733Z,-6.75
2018-03-06T02:52:16.555Z,-6.68
2018-03-06T02:53:26.666Z,-6.78
2018-03-06T02:54:37.710Z,-6.84
2018-03-06T02:55:49.190Z,-6.73
2018-03-06T02:57:01.956Z,-6.78
2018-03-06T02:58:14.116Z,-6.6
2018-03-06T02:59:24.190Z,-6.66
2018-03-06T03:00:33.969Z,-6.67
2018-03-06T03:01:44.024Z,-6.68
2018-03-06T03:02:53.611Z,-6.71
2018-03-06T03:04:04.023Z,-6.68
2018-03-06T03:05:17.639Z,-6.75
2018-03-06T03:06:28.791Z,-6.76
2018-03-06T03:07:40.458Z,-6.82
2018-03-06T03:08:49.974Z,-6.81
2018-03-06T03:10:00.045Z,-6.88
2018-03-06T03:11:09.860Z,-6.79
2018-03-06T03:12:21.067Z,-6.84
2018-03-06T03:13:34.013Z,-6.86
2018-03-06T03:14:46.149Z,-6.85
2018-03-06T03:15:55.928Z,-6.96
2018-03-06T03:17:05.745Z,-6.96
2018-03-06T03:18:15.843Z,-6.86
2018-03-06T03:19:25.906Z,-6.89
2018-03-06T03:20:35.425Z,-6.88
2018-03-06T03:21:46.823Z,-6.88
2018-03-06T03:22:59.105Z,-6.91
2018-03-06T03:24:09.285Z,-6.92
2018-03-06T03:25:19.362Z,-6.96
2018-03-06T03:26:29.150Z,-6.91
2018-03-06T03:27:40.364Z,-6.95
2018-03-06T03:28:51.789Z,-6.91
2018-03-06T03:30:04.208Z,-6.89
2018-03-06T03:31:14.323Z,-6.96
2018-03-06T03:32:24.415Z,-6.91
2018-03-06T03:33:36.371Z,-6.95
2018-03-06T03:34:49.131Z,-6.96
2018-03-06T03:36:01.169Z,-6.95
2018-03-06T03:37:11.267Z,-6.96
2018-03-06T03:38:21.061Z,-6.95
2018-03-06T03:39:32.319Z,-6.99
2018-03-06T03:40:43.920Z,-7.07
2018-03-06T03:41:55.072Z,-6.99
2018-03-06T03:43:04.871Z,-6.92
2018-03-06T03:44:14.982Z,-7.03
2018-03-06T03:45:26.100Z,-6.99
2018-03-06T03:46:37.581Z,-7.05
2018-03-06T03:47:50.309Z,-7.02
2018-03-06T03:49:00.996Z,-6.99
2018-03-06T03:50:11.074Z,-6.97
2018-03-06T03:51:21.150Z,-6.88
2018-03-06T03:52:32.924Z,-6.96
2018-03-06T03:53:44.853Z,-7.02
2018-03-06T03:54:56.631Z,-7.02
2018-03-06T03:56:06.432Z,-6.99
2018-03-06T03:57:15.966Z,-6.91
2018-03-06T03:58:26.040Z,-7.06
2018-03-06T03:59:37.763Z,-7.03
2018-03-06T04:00:47.830Z,-6.97
2018-03-06T04:05:09.272Z,-7.07
2018-03-06T04:06:19.670Z,-7.1
2018-03-06T04:07:29.197Z,-7.13
2018-03-06T04:08:40.686Z,-7.09
2018-03-06T04:09:53.222Z,-7.02
2018-03-06T04:11:04.807Z,-7.1
2018-03-06T04:12:14.890Z,-7.05
2018-03-06T04:13:24.959Z,-7.02
2018-03-06T04:14:35.039Z,-7.02
2018-03-06T04:15:46.654Z,-7.05
2018-03-06T04:16:58.015Z,-7.05
2018-03-06T04:18:08.963Z,-7.02
2018-03-06T04:19:18.791Z,-7.03
2018-03-06T04:20:28.591Z,-7.09
2018-03-06T04:21:40.197Z,-7.07
2018-03-06T04:22:52.869Z,-7.1
2018-03-06T04:24:04.735Z,-7.09
2018-03-06T04:25:15.637Z,-7.13
2018-03-06T04:26:25.490Z,-7.14
2018-03-06T04:27:35.595Z,-7.07
2018-03-06T04:28:45.652Z,-7.06
2018-03-06T04:29:57.714Z,-7.09
2018-03-06T04:31:08.237Z,-7.05
2018-03-06T04:32:19.128Z,-7.07
2018-03-06T04:33:29.023Z,-7.1
2018-03-06T04:34:38.795Z,-7.14
2018-03-06T04:35:50.720Z,-7.02
2018-03-06T04:37:03.410Z,-7.05
2018-03-06T04:38:14.884Z,-7.14
2018-03-06T04:39:24.963Z,-7.14
2018-03-06T04:40:34.766Z,-7.18
2018-03-06T04:41:44.560Z,-7.17
2018-03-06T04:42:55.639Z,-7.18
2018-03-06T04:44:06.359Z,-7.2
2018-03-06T04:45:19.201Z,-7.15
2018-03-06T04:46:30.468Z,-7.23
2018-03-06T04:47:40.542Z,-7.23
2018-03-06T04:48:50.649Z,-7.23
2018-03-06T04:50:00.449Z,-7.3
2018-03-06T04:51:11.732Z,-7.28
2018-03-06T04:52:23.524Z,-7.36
2018-03-06T04:53:35.915Z,-7.35
2018-03-06T04:54:45.992Z,-7.32
2018-03-06T04:55:56.133Z,-7.34
2018-03-06T04:57:06.186Z,-7.25
2018-03-06T04:58:15.980Z,-7.28
2018-03-06T04:59:26.686Z,-7.39
2018-03-06T05:00:37.121Z,-7.38
2018-03-06T05:01:49.450Z,-7.38
2018-03-06T05:02:59.621Z,-7.36
2018-03-06T05:04:09.480Z,-7.32
2018-03-06T05:05:19.564Z,-7.36
2018-03-06T05:06:29.066Z,-7.34
2018-03-06T05:07:40.469Z,-7.38
2018-03-06T05:08:51.694Z,-7.3
2018-03-06T05:10:03.859Z,-7.34
2018-03-06T05:11:14.775Z,-7.38
2018-03-06T05:12:24.838Z,-7.38
2018-03-06T05:13:35.215Z,-7.38
2018-03-06T05:14:48.564Z,-7.35
2018-03-06T05:16:00.882Z,-7.39
2018-03-06T05:17:10.379Z,-7.41
2018-03-06T05:18:20.170Z,-7.38
2018-03-06T05:19:30.016Z,-7.39
2018-03-06T05:20:39.523Z,-7.36
2018-03-06T05:21:51.089Z,-7.34
2018-03-06T05:23:02.470Z,-7.34
2018-03-06T05:24:14.446Z,-7.38
2018-03-06T05:25:23.944Z,-7.35
2018-03-06T05:26:34.045Z,-7.35
2018-03-06T05:27:44.112Z,-7.32
2018-03-06T05:28:54.195Z,-7.41
2018-03-06T05:30:03.990Z,-7.36
2018-03-06T05:31:15.413Z,-7.38
2018-03-06T05:32:28.149Z,-7.32
2018-03-06T05:33:39.567Z,-7.35
2018-03-06T05:34:49.630Z,-7.34
2018-03-06T05:35:59.485Z,-7.3
2018-03-06T05:37:09.575Z,-7.34
2018-03-06T05:38:19.644Z,-7.39
2018-03-06T05:39:29.159Z,-7.38
2018-03-06T05:40:39.099Z,-7.32
2018-03-06T05:41:49.909Z,-7.27
2018-03-06T05:42:59.950Z,-7.23
2018-03-06T05:44:10.035Z,-7.34
2018-03-06T05:45:20.114Z,-7.21
2018-03-06T05:46:29.909Z,-7.24
2018-03-06T05:47:39.970Z,-7.25
2018-03-06T05:48:51.464Z,-7.17
2018-03-06T05:50:02.480Z,-7.23
2018-03-06T05:51:15.407Z,-7.23
2018-03-06T05:52:24.939Z,-7.17
2018-03-06T05:53:34.164Z,-7.13
2018-03-06T05:54:44.221Z,-7.17
2018-03-06T05:55:54.285Z,-7.2
2018-03-06T05:57:06.007Z,-7.2
2018-03-06T05:58:18.173Z,-7.23
2018-03-06T05:59:30.344Z,-7.27
2018-03-06T06:00:40.903Z,-7.15
2018-03-06T06:01:51.063Z,-7.18
2018-03-06T06:03:01.158Z,-7.17
2018-03-06T06:04:11.270Z,-7.1
2018-03-06T06:05:22.921Z,-7.07
2018-03-06T06:06:35.527Z,-7.13
2018-03-06T06:07:47.167Z,-7.17
2018-03-06T06:08:56.986Z,-7.13
2018-03-06T06:10:08.878Z,-7.09
2018-03-06T06:11:21.368Z,-7.15
2018-03-06T06:12:32.139Z,-7.14
2018-03-06T06:13:41.954Z,-7.1
2018-03-06T06:14:51.995Z,-7.06
2018-03-06T06:16:01.983Z,-7.13
2018-03-06T06:17:11.707Z,-7.13
2018-03-06T06:18:21.695Z,-7.07
2018-03-06T06:19:31.781Z,-7.05
2018-03-06T06:20:41.774Z,-7.03
2018-03-06T06:21:51.510Z,-7.05
2018-03-06T06:23:00.709Z,-7.1
2018-03-06T06:24:10.698Z,-7.06
2018-03-06T06:25:20.737Z,-6.99
2018-03-06T06:26:30.746Z,-6.96
2018-03-06T06:27:40.750Z,-6.89
2018-03-06T06:28:50.479Z,-6.95
2018-03-06T06:30:00.261Z,-6.85
2018-03-06T06:31:09.769Z,-6.82
2018-03-06T06:32:19.754Z,-6.76
2018-03-06T06:33:29.758Z,-6.75
2018-03-06T06:34:39.748Z,-6.66
2018-03-06T06:35:49.741Z,-6.64
2018-03-06T06:36:59.783Z,-6.58
2018-03-06T06:38:09.505Z,-6.6
2018-03-06T06:39:18.694Z,-6.46
2018-03-06T06:40:28.691Z,-6.33
2018-03-06T06:41:38.735Z,-6.34
2018-03-06T06:42:48.561Z,-6.36
2018-03-06T06:43:58.285Z,-6.34
2018-03-06T06:45:08.009Z,-6.3
2018-03-06T06:46:17.728Z,-6.23
2018-03-06T06:47:27.450Z,-6.18
2018-03-06T06:48:37.449Z,-6.21
2018-03-06T06:49:47.171Z,-6.33
2018-03-06T06:50:57.160Z,-6.33
2018-03-06T06:52:06.884Z,-6.2
2018-03-06T06:53:16.606Z,-6.2
2018-03-06T06:54:26.345Z,-6.15
2018-03-06T06:55:35.801Z,-6.13
2018-03-06T06:56:45.790Z,-6.07
2018-03-06T06:57:55.782Z,-6.07
2018-03-06T06:59:05.772Z,-6
2018-03-06T07:00:15.492Z,-6.05
2018-03-06T07:01:25.223Z,-5.99
2018-03-06T07:02:34.959Z,-5.97
2018-03-06T07:03:44.953Z,-5.94
2018-03-06T07:04:54.943Z,-5.89
2018-03-06T07:06:04.666Z,-5.92
2018-03-06T07:07:14.655Z,-5.81
2018-03-06T07:08:24.376Z,-5.81
2018-03-06T07:09:34.363Z,-5.74
2018-03-06T07:10:44.349Z,-5.66
2018-03-06T07:11:54.338Z,-5.58
2018-03-06T07:13:04.330Z,-5.5
2018-03-06T07:14:14.321Z,-5.39
2018-03-06T07:15:24.319Z,-5.43
2018-03-06T07:16:34.299Z,-5.49
2018-03-06T07:17:44.028Z,-5.63
2018-03-06T07:18:54.018Z,-5.45
2018-03-06T07:20:04.054Z,-5.43
2018-03-06T07:21:13.606Z,-5.59
2018-03-06T07:22:23.688Z,-5.6
2018-03-06T07:23:33.678Z,-5.48
2018-03-06T07:24:43.667Z,-5.48
2018-03-06T07:25:53.392Z,-5.59
2018-03-06T07:27:02.634Z,-5.56
2018-03-06T07:28:12.622Z,-5.53
2018-03-06T07:29:22.616Z,-5.49
2018-03-06T07:30:32.341Z,-5.53
2018-03-06T07:31:42.064Z,-5.52
2018-03-06T07:32:52.138Z,-5.52
2018-03-06T07:34:02.143Z,-5.55
2018-03-06T07:35:11.703Z,-5.49
2018-03-06T07:36:21.790Z,-5.3
2018-03-06T07:37:31.250Z,-5.32
2018-03-06T07:38:41.246Z,-5.17
2018-03-06T07:39:50.995Z,-5.25
2018-03-06T07:41:00.988Z,-5.1
2018-03-06T07:42:09.913Z,-5.05
2018-03-06T07:43:19.905Z,-5.05
2018-03-06T07:44:29.383Z,-4.94
2018-03-06T07:45:38.570Z,-4.92
2018-03-06T07:46:48.291Z,-5.01
2018-03-06T07:47:58.283Z,-4.94
2018-03-06T07:49:08.009Z,-4.94
2018-03-06T07:50:17.744Z,-4.94
2018-03-06T07:51:27.740Z,-4.92
2018-03-06T07:52:37.557Z,-4.91
2018-03-06T07:53:47.285Z,-4.87
2018-03-06T07:54:56.999Z,-4.87
2018-03-06T07:56:06.196Z,-4.67
2018-03-06T07:57:15.982Z,-4.56
2018-03-06T07:58:25.810Z,-4.59
2018-03-06T07:59:35.541Z,-4.62
2018-03-06T08:00:45.537Z,-4.58
2018-03-06T08:01:55.000Z,-4.7
2018-03-06T08:03:04.466Z,-4.8
2018-03-06T08:04:14.816Z,-4.81
2018-03-06T08:05:24.276Z,-4.83
2018-03-06T08:06:33.844Z,-4.87
2018-03-06T08:07:43.920Z,-4.83
2018-03-06T08:08:53.642Z,-4.88
2018-03-06T08:10:03.638Z,-4.71
2018-03-06T08:11:13.366Z,-4.84
2018-03-06T08:12:23.379Z,-4.79
2018-03-06T08:13:33.364Z,-4.73
2018-03-06T08:14:43.088Z,-4.8
2018-03-06T08:15:52.918Z,-4.74
2018-03-06T08:17:02.381Z,-4.79
2018-03-06T08:18:12.112Z,-4.73
2018-03-06T08:19:22.106Z,-4.71
2018-03-06T08:20:31.833Z,-4.65
2018-03-06T08:21:41.822Z,-4.67
2018-03-06T08:22:51.553Z,-4.55
2018-03-06T08:24:01.597Z,-4.52
2018-03-06T08:25:11.604Z,-4.47
2018-03-06T08:26:21.600Z,-4.42
2018-03-06T08:27:31.645Z,-4.26
2018-03-06T08:28:41.630Z,-4.31
2018-03-06T08:29:51.092Z,-4.23
2018-03-06T08:31:00.556Z,-4.23
2018-03-06T08:32:10.021Z,-4.22
2018-03-06T08:33:20.011Z,-4.17
2018-03-06T08:34:29.748Z,-4.2
2018-03-06T08:35:39.473Z,-3.95
2018-03-06T08:36:49.200Z,-3.85
2018-03-06T08:37:58.664Z,-3.95
2018-03-06T08:39:08.677Z,-3.84
2018-03-06T08:40:18.412Z,-3.81
2018-03-06T08:41:28.411Z,-3.8
2018-03-06T08:42:37.866Z,-3.78
2018-03-06T08:43:47.588Z,-3.8
2018-03-06T08:44:57.604Z,-3.69
2018-03-06T08:46:07.600Z,-3.77
2018-03-06T08:47:17.590Z,-3.95
2018-03-06T08:48:27.629Z,-3.94
2018-03-06T08:49:37.622Z,-4.02
2018-03-06T08:50:47.351Z,-3.94
2018-03-06T08:51:56.808Z,-3.99
2018-03-06T08:53:06.536Z,-4.08
2018-03-06T08:54:16.265Z,-4.17
2018-03-06T08:55:25.993Z,-4.2
2018-03-06T08:56:35.462Z,-4.09
2018-03-06T08:57:45.615Z,-4.19
2018-03-06T08:58:55.612Z,-4.06
2018-03-06T09:00:05.079Z,-3.85
2018-03-06T09:01:15.070Z,-3.8
2018-03-06T09:02:25.070Z,-3.64
2018-03-06T09:03:34.593Z,-3.43
2018-03-06T09:04:44.687Z,-3.38
2018-03-06T09:05:54.688Z,-3.27
2018-03-06T09:07:04.426Z,-3.3
2018-03-06T09:08:14.417Z,-3.38
2018-03-06T09:09:24.414Z,-3.43
2018-03-06T09:10:33.878Z,-3.38
2018-03-06T09:11:43.881Z,-3.38
2018-03-06T09:12:53.611Z,-3.33
2018-03-06T09:14:03.616Z,-3.33
2018-03-06T09:15:13.611Z,-3.08
2018-03-06T09:16:22.806Z,-3.14
2018-03-06T09:17:32.909Z,-3.07
2018-03-06T09:18:42.638Z,-2.96
2018-03-06T09:19:52.631Z,-2.94
2018-03-06T09:21:02.624Z,-2.86
2018-03-06T09:22:12.619Z,-2.76
2018-03-06T09:23:22.417Z,-2.7
2018-03-06T09:24:32.488Z,-2.75
2018-03-06T09:25:42.222Z,-2.7
2018-03-06T09:26:51.993Z,-2.66
2018-03-06T09:28:01.990Z,-2.75
2018-03-06T09:29:11.986Z,-2.7
2018-03-06T09:30:21.771Z,-2.78
2018-03-06T09:31:31.766Z,-2.76
2018-03-06T09:32:41.762Z,-2.76
2018-03-06T09:33:51.756Z,-2.61
2018-03-06T09:35:01.489Z,-2.63
2018-03-06T09:36:11.489Z,-2.72
2018-03-06T09:37:21.222Z,-2.73
2018-03-06T09:38:30.963Z,-2.83
2018-03-06T09:39:40.714Z,-3.02
2018-03-06T09:40:50.176Z,-2.99
2018-03-06T09:41:59.636Z,-3.02
2018-03-06T09:43:09.365Z,-3.08
2018-03-06T09:44:19.372Z,-2.93
2018-03-06T09:45:29.109Z,-2.98
2018-03-06T09:46:38.836Z,-2.93
2018-03-06T09:47:48.838Z,-2.72
2018-03-06T09:48:58.571Z,-2.69
2018-03-06T09:50:08.034Z,-2.65
2018-03-06T09:51:18.031Z,-2.57
2018-03-06T09:52:27.933Z,-2.5
2018-03-06T09:53:37.978Z,-2.5
2018-03-06T09:54:47.442Z,-2.52
2018-03-06T09:55:57.446Z,-2.61
2018-03-06T09:57:06.913Z,-2.62
2018-03-06T09:58:16.908Z,-2.65
2018-03-06T09:59:26.370Z,-2.57
2018-03-06T10:00:36.102Z,-2.51
2018-03-06T10:01:46.109Z,-2.47
2018-03-06T10:02:55.855Z,-2.55
2018-03-06T10:04:05.386Z,-2.42
2018-03-06T10:05:15.389Z,-2.42
2018-03-06T10:06:24.852Z,-2.39
2018-03-06T10:07:34.579Z,-2.47
2018-03-06T10:08:44.298Z,-2.37
2018-03-06T10:09:53.758Z,-2.33
2018-03-06T10:11:03.510Z,-2.33
2018-03-06T10:12:12.977Z,-2.37
2018-03-06T10:13:22.974Z,-2.33
2018-03-06T10:14:32.433Z,-2.29
2018-03-06T10:15:42.422Z,-2.37
2018-03-06T10:16:52.456Z,-2.36
2018-03-06T10:18:02.314Z,-2.42
2018-03-06T10:19:12.311Z,-2.39
2018-03-06T10:20:22.302Z,-2.39
2018-03-06T10:21:31.769Z,-2.37
2018-03-06T10:22:41.765Z,-2.39
2018-03-06T10:23:51.831Z,-2.29
2018-03-06T10:25:01.842Z,-2.33
2018-03-06T10:26:11.834Z,-2.37
2018-03-06T10:27:21.828Z,-2.37
2018-03-06T10:28:31.556Z,-2.32
2018-03-06T10:29:41.292Z,-2.2
2018-03-06T10:30:50.490Z,-2.13
2018-03-06T10:32:00.488Z,-2.08
2018-03-06T10:33:09.953Z,-2.04
2018-03-06T10:34:19.682Z,-2.04
2018-03-06T10:35:29.409Z,-2
2018-03-06T10:36:39.472Z,-1.93
2018-03-06T10:37:49.202Z,-1.92
2018-03-06T10:38:58.931Z,-1.9
2018-03-06T10:40:08.725Z,-1.96
2018-03-06T10:41:18.453Z,-1.89
2018-03-06T10:42:28.181Z,-1.84
2018-03-06T10:43:38.179Z,-1.96
2018-03-06T10:44:47.911Z,-1.99
2018-03-06T10:45:57.906Z,-2.02
2018-03-06T10:47:07.723Z,-2.1
2018-03-06T10:48:17.143Z,-2.04
2018-03-06T10:49:27.143Z,-1.93
2018-03-06T10:50:36.612Z,-1.97
2018-03-06T10:51:46.633Z,-2.07
2018-03-06T10:52:56.632Z,-2.02
2018-03-06T10:54:06.365Z,-2.1
2018-03-06T10:55:15.930Z,-2.11
2018-03-06T10:56:25.933Z,-2.13
2018-03-06T10:57:35.925Z,-2.15
2018-03-06T10:58:45.936Z,-2.08
2018-03-06T10:59:55.941Z,-2.04
2018-03-06T11:01:05.407Z,-1.86
2018-03-06T11:02:15.631Z,-1.89
2018-03-06T11:03:25.631Z,-1.87
2018-03-06T11:04:35.624Z,-1.87
2018-03-06T11:05:45.628Z,-1.81
2018-03-06T11:06:55.625Z,-1.79
2018-03-06T11:08:05.626Z,-1.74
2018-03-06T11:09:15.170Z,-1.9
2018-03-06T11:10:25.189Z,-1.89
2018-03-06T11:11:34.913Z,-1.97
2018-03-06T11:12:44.930Z,-1.86
2018-03-06T11:13:54.936Z,-1.89
2018-03-06T11:15:04.398Z,-1.82
2018-03-06T11:16:14.132Z,-1.82
2018-03-06T11:17:23.862Z,-1.81
2018-03-06T11:18:33.985Z,-1.74
2018-03-06T11:19:43.991Z,-1.71
2018-03-06T11:20:53.997Z,-1.69
2018-03-06T11:22:04.014Z,-1.61
2018-03-06T11:23:13.752Z,-1.6
2018-03-06T11:24:23.488Z,-1.53
2018-03-06T11:25:33.488Z,-1.43
2018-03-06T11:26:43.482Z,-1.51
2018-03-06T11:27:53.488Z,-1.45
2018-03-06T11:29:03.495Z,-1.43
2018-03-06T11:30:12.961Z,-1.46
2018-03-06T11:31:22.693Z,-1.48
2018-03-06T11:32:32.689Z,-1.54
2018-03-06T11:33:42.146Z,-1.54
2018-03-06T11:34:52.147Z,-1.6
2018-03-06T11:36:02.144Z,-1.61
2018-03-06T11:37:11.612Z,-1.64
2018-03-06T11:38:21.611Z,-1.74
2018-03-06T11:39:31.338Z,-1.68
2018-03-06T11:40:41.334Z,-1.79
2018-03-06T11:41:51.064Z,-1.74
2018-03-06T11:43:00.806Z,-1.84
2018-03-06T11:44:10.577Z,-1.71
2018-03-06T11:45:20.580Z,-1.71
2018-03-06T11:46:30.590Z,-1.71
2018-03-06T11:47:40.592Z,-1.64
2018-03-06T11:48:50.329Z,-1.66
2018-03-06T11:49:59.794Z,-1.64
2018-03-06T11:51:09.258Z,-1.61
2018-03-06T11:52:19.255Z,-1.58
2018-03-06T11:53:28.454Z,-1.58
2018-03-06T11:54:38.455Z,-1.6
2018-03-06T11:55:48.460Z,-1.63
2018-03-06T11:56:58.187Z,-1.64
2018-03-06T11:58:07.656Z,-1.58
2018-03-06T11:59:17.655Z,-1.68
2018-03-06T12:00:27.653Z,-1.54
2018-03-06T12:01:37.388Z,-1.6
2018-03-06T12:02:46.854Z,-1.66
2018-03-06T12:03:56.993Z,-1.6
2018-03-06T12:05:06.503Z,-1.57
2018-03-06T12:06:15.969Z,-1.53
2018-03-06T12:07:25.699Z,-1.38
2018-03-06T12:08:35.696Z,-1.35
2018-03-06T12:09:45.427Z,-1.21
2018-03-06T12:10:55.157Z,-1.27
2018-03-06T12:12:04.622Z,-1.32
2018-03-06T12:13:14.623Z,-1.48
2018-03-06T12:14:24.350Z,-1.53
2018-03-06T12:15:34.345Z,-1.69
2018-03-06T12:16:44.342Z,-1.79
2018-03-06T12:17:54.088Z,-1.87
2018-03-06T12:19:04.097Z,-1.97
2018-03-06T12:20:13.569Z,-1.99
2018-03-06T12:21:23.562Z,-2.07
2018-03-06T12:22:33.358Z,-2.05
2018-03-06T12:23:43.350Z,-2.05
2018-03-06T12:24:53.348Z,-1.97
2018-03-06T12:26:02.819Z,-2.13
2018-03-06T12:27:12.822Z,-2.15
2018-03-06T12:28:22.818Z,-2.2
2018-03-06T12:29:32.818Z,-2.23
2018-03-06T12:30:42.819Z,-2.14
2018-03-06T12:31:52.819Z,-2.23
2018-03-06T12:33:02.549Z,-2.28
2018-03-06T12:34:12.543Z,-2.33
2018-03-06T12:35:22.547Z,-2.18
2018-03-06T12:36:32.290Z,-2.25
2018-03-06T12:37:42.294Z,-2.17
2018-03-06T12:38:52.301Z,-2.23
2018-03-06T12:40:02.297Z,-2.23
2018-03-06T12:41:12.043Z,-2.15
2018-03-06T12:42:22.085Z,-2.14
2018-03-06T12:43:31.819Z,-2.26
2018-03-06T12:44:41.837Z,-2.25
2018-03-06T12:45:51.576Z,-2.33
2018-03-06T12:47:00.772Z,-2.22
2018-03-06T12:48:10.771Z,-2.18
2018-03-06T12:49:20.849Z,-2.22
2018-03-06T12:50:30.318Z,-2.17
2018-03-06T12:51:40.312Z,-2.11
2018-03-06T12:52:49.777Z,-2
2018-03-06T12:53:59.505Z,-2.02
2018-03-06T12:55:09.605Z,-2.02
2018-03-06T12:56:19.604Z,-1.99
2018-03-06T12:57:29.337Z,-1.9
2018-03-06T12:58:39.068Z,-1.89
2018-03-06T12:59:48.532Z,-2
2018-03-06T13:00:58.264Z,-1.87
2018-03-06T13:02:08.274Z,-1.93
2018-03-06T13:03:18.269Z,-1.93
2018-03-06T13:04:27.998Z,-1.78
2018-03-06T13:05:37.462Z,-1.99
2018-03-06T13:06:47.191Z,-1.94
2018-03-06T13:07:57.186Z,-1.94
2018-03-06T13:09:06.934Z,-1.99
2018-03-06T13:10:16.128Z,-1.93
2018-03-06T13:11:26.123Z,-1.99
2018-03-06T13:12:36.208Z,-1.94
2018-03-06T13:13:46.252Z,-2.05
2018-03-06T13:14:55.990Z,-2
2018-03-06T13:16:05.185Z,-1.9
2018-03-06T13:17:14.922Z,-1.96
2018-03-06T13:18:24.981Z,-1.94
2018-03-06T13:19:34.721Z,-1.99
2018-03-06T13:20:44.725Z,-1.94
2018-03-06T13:21:54.714Z,-2.07
2018-03-06T13:23:03.912Z,-2.02
2018-03-06T13:24:13.646Z,-2.08
2018-03-06T13:25:23.107Z,-2.02
2018-03-06T13:26:32.572Z,-1.93
2018-03-06T13:27:42.302Z,-1.9
2018-03-06T13:28:52.299Z,-1.9
2018-03-06T13:30:02.340Z,-1.84
2018-03-06T13:31:12.077Z,-1.93
2018-03-06T13:32:21.813Z,-2
2018-03-06T13:33:31.815Z,-2.13
2018-03-06T13:34:41.555Z,-2.15
2018-03-06T13:35:51.554Z,-2.2
2018-03-06T13:37:01.545Z,-2.25
2018-03-06T13:38:11.276Z,-2.22
2018-03-06T13:39:21.288Z,-2.2
2018-03-06T13:40:31.017Z,-2.2
2018-03-06T13:41:40.750Z,-2.14
2018-03-06T13:42:50.755Z,-2.26
2018-03-06T13:44:00.486Z,-2.28
2018-03-06T13:45:09.688Z,-2.1
2018-03-06T13:46:19.735Z,-2.07
2018-03-06T13:47:29.481Z,-2.02
2018-03-06T13:48:39.483Z,-2.02
2018-03-06T13:49:49.484Z,-2.13
2018-03-06T13:50:59.211Z,-2.18
2018-03-06T13:52:09.313Z,-2.18
2018-03-06T13:53:19.541Z,-2.22
2018-03-06T13:54:29.004Z,-2.2
2018-03-06T13:55:38.473Z,-2.17
2018-03-06T13:56:48.472Z,-2.08
2018-03-06T13:57:58.474Z,-2.07
2018-03-06T13:59:08.477Z,-1.93
2018-03-06T14:00:18.205Z,-1.87
2018-03-06T14:01:27.698Z,-1.94
2018-03-06T14:02:37.161Z,-1.97
2018-03-06T14:03:47.158Z,-2.02
2018-03-06T14:04:56.889Z,-2.02
2018-03-06T14:06:06.623Z,-1.97
2018-03-06T14:07:16.092Z,-1.97
2018-03-06T14:08:26.087Z,-2.04
2018-03-06T14:09:36.090Z,-2.07
2018-03-06T14:10:45.591Z,-2.08
2018-03-06T14:11:55.318Z,-2.13
2018-03-06T14:13:04.517Z,-2.11
2018-03-06T14:14:14.526Z,-2.22
2018-03-06T14:15:24.272Z,-2.37
2018-03-06T14:16:34.370Z,-2.36
2018-03-06T14:17:44.117Z,-2.39
2018-03-06T14:18:53.843Z,-2.37
2018-03-06T14:20:03.577Z,-2.42
2018-03-06T14:21:13.040Z,-2.42
2018-03-06T14:22:23.038Z,-2.52
2018-03-06T14:23:32.773Z,-2.69
2018-03-06T14:24:42.772Z,-2.73
2018-03-06T14:25:52.507Z,-2.81
2018-03-06T14:27:02.236Z,-2.9
2018-03-06T14:28:12.239Z,-2.9
2018-03-06T14:29:22.234Z,-2.86
2018-03-06T14:30:31.969Z,-2.93
2018-03-06T14:31:41.959Z,-2.93
2018-03-06T14:32:51.949Z,-2.98
2018-03-06T14:34:01.681Z,-3.05
2018-03-06T14:35:11.140Z,-2.99
2018-03-06T14:36:21.137Z,-2.99
2018-03-06T14:37:30.966Z,-3.02
2018-03-06T14:38:40.959Z,-3.04
2018-03-06T14:39:50.695Z,-3.04
2018-03-06T14:41:00.429Z,-3.09
2018-03-06T14:42:10.438Z,-3.23
2018-03-06T14:43:20.162Z,-3.19
2018-03-06T14:44:29.618Z,-3.26
2018-03-06T14:45:39.614Z,-3.25
2018-03-06T14:46:49.610Z,-3.14
2018-03-06T14:47:59.615Z,-3.22
2018-03-06T14:49:09.632Z,-3.11
2018-03-06T14:50:19.632Z,-3.15
2018-03-06T14:51:29.398Z,-3.2
2018-03-06T14:52:39.403Z,-3.12
2018-03-06T14:53:49.390Z,-3.07
2018-03-06T14:54:59.389Z,-3.26
2018-03-06T14:56:09.392Z,-3.27
2018-03-06T14:57:19.391Z,-3.26
2018-03-06T14:58:28.851Z,-3.25
2018-03-06T14:59:38.851Z,-3.09
2018-03-06T15:00:48.576Z,-3.11
2018-03-06T15:01:58.579Z,-3.15
2018-03-06T15:03:08.067Z,-3.27
2018-03-06T15:04:18.061Z,-3.26
2018-03-06T15:05:27.792Z,-3.22
2018-03-06T15:06:37.847Z,-3.25
2018-03-06T15:07:47.580Z,-3.23
2018-03-06T15:08:57.679Z,-3.22
2018-03-06T15:10:07.142Z,-3.2
2018-03-06T15:11:17.130Z,-3.11